Time;durP1;ratioP1;P1;durP2;ratioP2;P2;SDS_P1;SDS_P2;PMS_P1;PMS_P2;Temp;Humidity;BMP_temperature;BMP_pressure;BME280_temperature;BME280_humidity;BME280_pressure;Samples;Min_cycle;Max_cycle;Signal;HPM_P1;HPM_P2
2023/06/28 00:01:24;;;;;;;1.88;1.27;;;19.60;99.90;;;;;;4988067;28;20054;-80
2023/06/28 00:03:51;;;;;;;2.78;1.70;;;19.60;99.90;;;;;;4972058;28;20129;-77
2023/06/28 00:06:19;;;;;;;2.80;2.00;;;19.60;99.90;;;;;;4971956;28;20054;-77
2023/06/28 00:08:47;;;;;;;2.95;1.90;;;19.60;99.90;;;;;;4988793;28;20587;-77
2023/06/28 00:11:13;;;;;;;3.22;1.80;;;19.60;99.90;;;;;;5005063;28;20100;-77
2023/06/28 00:13:40;;;;;;;2.42;1.73;;;19.60;99.90;;;;;;4971710;28;20496;-77
2023/06/28 00:16:07;;;;;;;2.13;1.58;;;19.50;99.90;;;;;;4973625;28;20050;-77
2023/06/28 00:18:35;;;;;;;1.90;1.60;;;19.50;99.90;;;;;;4989353;28;20501;-78
2023/06/28 00:21:02;;;;;;;3.35;1.80;;;19.50;99.90;;;;;;4957811;28;20041;-79
2023/06/28 00:23:29;;;;;;;2.78;1.85;;;19.50;99.90;;;;;;4972083;28;20066;-79
2023/06/28 00:25:56;;;;;;;3.85;2.50;;;19.50;99.90;;;;;;4969515;28;20054;-78
2023/06/28 00:28:23;;;;;;;3.28;2.15;;;19.50;99.90;;;;;;5003949;28;20461;-78
2023/06/28 00:30:50;;;;;;;3.40;1.70;;;19.50;99.90;;;;;;4957179;28;20042;-79
2023/06/28 00:33:19;;;;;;;3.05;1.58;;;19.50;99.90;;;;;;4972721;28;20086;-78
2023/06/28 00:35:50;;;;;;;3.50;1.95;;;19.50;99.90;;;;;;4989362;28;20064;-78
2023/06/28 00:38:17;;;;;;;3.30;1.98;;;19.50;99.90;;;;;;4973419;28;20054;-77
2023/06/28 00:40:44;;;;;;;2.53;1.67;;;19.50;99.90;;;;;;4988534;28;20155;-78
2023/06/28 00:43:11;;;;;;;3.30;1.88;;;19.50;99.90;;;;;;4988706;28;20058;-77
2023/06/28 00:45:38;;;;;;;1.90;1.30;;;19.50;99.90;;;;;;4972533;28;20142;-78
2023/06/28 00:48:05;;;;;;;2.20;1.55;;;19.50;99.90;;;;;;4988840;28;20053;-76
2023/06/28 00:50:32;;;;;;;2.30;1.73;;;19.50;99.90;;;;;;4972243;28;20057;-77
2023/06/28 00:52:59;;;;;;;2.40;1.63;;;19.50;99.90;;;;;;4956945;28;20054;-78
2023/06/28 00:55:25;;;;;;;3.22;2.17;;;19.50;99.90;;;;;;4986953;28;20456;-78
2023/06/28 00:57:52;;;;;;;3.00;1.77;;;19.50;99.90;;;;;;4971994;28;20049;-77
2023/06/28 01:00:19;;;;;;;1.95;1.30;;;19.50;99.90;;;;;;4972322;28;20085;-77
2023/06/28 01:02:46;;;;;;;1.90;1.30;;;19.50;99.90;;;;;;4969760;28;20061;-78
2023/06/28 01:05:13;;;;;;;2.45;1.60;;;19.50;99.90;;;;;;4984627;28;20544;-78
2023/06/28 01:07:40;;;;;;;2.50;1.58;;;19.50;99.90;;;;;;4955304;28;20057;-77
2023/06/28 01:10:07;;;;;;;2.58;1.58;;;19.50;99.90;;;;;;4955851;28;20861;-77
2023/06/28 01:12:34;;;;;;;3.80;1.90;;;19.50;99.90;;;;;;4986190;28;20639;-78
2023/06/28 01:15:01;;;;;;;2.83;1.50;;;19.50;99.90;;;;;;4962025;28;20045;-77
2023/06/28 01:17:28;;;;;;;2.63;1.67;;;19.50;99.90;;;;;;4956277;28;20466;-78
2023/06/28 01:19:55;;;;;;;2.78;1.95;;;19.50;99.90;;;;;;4983459;28;20054;-80
2023/06/28 01:22:24;;;;;;;2.45;2.00;;;19.50;99.90;;;;;;4973977;28;20053;-77
2023/06/28 01:24:52;;;;;;;2.97;2.00;;;19.50;99.90;;;;;;4965658;28;20066;-78
2023/06/28 01:27:19;;;;;;;3.70;2.13;;;19.50;99.90;;;;;;4971944;28;20100;-78
2023/06/28 01:29:47;;;;;;;3.78;2.47;;;19.50;99.90;;;;;;4961079;28;20054;-78
2023/06/28 01:32:15;;;;;;;3.70;2.05;;;19.40;99.90;;;;;;4974240;28;20194;-78
2023/06/28 01:34:42;;;;;;;3.17;2.28;;;19.40;99.90;;;;;;4982688;28;20481;-78
2023/06/28 01:37:09;;;;;;;2.88;1.90;;;19.40;99.90;;;;;;5003781;28;20045;-77
2023/06/28 01:39:36;;;;;;;3.35;2.30;;;19.40;99.90;;;;;;4974886;28;20050;-77
2023/06/28 01:42:03;;;;;;;3.30;2.20;;;19.40;99.90;;;;;;4976587;28;20070;-77
2023/06/28 01:44:31;;;;;;;3.40;2.15;;;19.50;99.90;;;;;;4961334;28;20053;-77
2023/06/28 01:46:58;;;;;;;4.65;2.22;;;19.50;99.90;;;;;;4994414;28;20038;-78
2023/06/28 01:49:25;;;;;;;2.03;1.70;;;19.50;99.90;;;;;;4993090;28;20057;-76
2023/06/28 01:51:55;;;;;;;3.80;2.40;;;19.50;99.90;;;;;;4990221;28;20053;-78
2023/06/28 01:54:22;;;;;;;3.15;2.10;;;19.50;99.90;;;;;;4973434;28;20047;-77
2023/06/28 01:56:48;;;;;;;4.25;2.15;;;19.50;99.90;;;;;;4989011;28;20049;-77
2023/06/28 01:59:15;;;;;;;2.40;1.98;;;19.50;99.90;;;;;;4989724;28;20054;-77
2023/06/28 02:01:43;;;;;;;3.00;1.98;;;19.50;99.90;;;;;;4989530;28;20409;-78
2023/06/28 02:04:10;;;;;;;2.13;1.70;;;19.50;99.90;;;;;;4987586;28;20142;-78
2023/06/28 02:06:40;;;;;;;3.70;2.80;;;19.50;99.90;;;;;;4984703;28;20049;-77
2023/06/28 02:09:07;;;;;;;3.03;1.85;;;19.50;99.90;;;;;;4986301;28;20046;-77
2023/06/28 02:11:34;;;;;;;2.72;2.10;;;19.50;99.90;;;;;;4969183;28;20113;-79
2023/06/28 02:14:01;;;;;;;2.67;2.00;;;19.50;99.90;;;;;;4970414;28;20085;-79
2023/06/28 02:16:31;;;;;;;2.40;1.95;;;19.50;99.90;;;;;;4986203;28;20194;-79
2023/06/28 02:19:00;;;;;;;2.90;1.95;;;19.50;99.90;;;;;;4985599;28;20066;-78
2023/06/28 02:21:27;;;;;;;3.15;2.25;;;19.50;99.90;;;;;;4985591;28;20054;-78
2023/06/28 02:23:54;;;;;;;4.65;2.40;;;19.50;99.90;;;;;;4986057;28;20165;-78
2023/06/28 02:26:21;;;;;;;3.13;2.03;;;19.50;99.90;;;;;;5017712;28;20458;-78
2023/06/28 02:28:48;;;;;;;2.88;2.20;;;19.50;99.90;;;;;;4987111;28;20069;-78
2023/06/28 02:31:16;;;;;;;2.97;2.05;;;19.50;99.90;;;;;;4987091;28;20056;-78
2023/06/28 02:33:43;;;;;;;4.78;2.00;;;19.50;99.90;;;;;;5001745;28;20050;-78
2023/06/28 02:36:10;;;;;;;3.10;2.10;;;19.50;99.90;;;;;;5017656;28;20449;-78
2023/06/28 02:38:36;;;;;;;3.10;2.08;;;19.50;99.90;;;;;;4985362;28;20493;-78
2023/06/28 02:41:03;;;;;;;3.03;2.08;;;19.50;99.90;;;;;;4986269;28;20054;-78
2023/06/28 02:43:30;;;;;;;2.50;1.75;;;19.50;99.90;;;;;;5001342;28;20050;-78
2023/06/28 02:45:57;;;;;;;2.42;1.90;;;19.50;99.90;;;;;;4969920;28;20061;-79
2023/06/28 02:48:23;;;;;;;2.20;1.75;;;19.60;99.90;;;;;;4986255;28;20053;-78
2023/06/28 02:50:50;;;;;;;2.42;1.80;;;19.50;99.90;;;;;;4986540;28;20533;-77
2023/06/28 02:53:17;;;;;;;2.80;2.30;;;19.50;99.90;;;;;;4985341;28;20050;-78
2023/06/28 02:55:44;;;;;;;4.25;2.67;;;19.50;99.90;;;;;;4984416;28;20046;-78
2023/06/28 02:58:10;;;;;;;2.88;2.00;;;19.50;99.90;;;;;;4969102;28;20057;-77
2023/06/28 03:00:38;;;;;;;2.88;2.13;;;19.50;99.90;;;;;;4987043;28;20078;-78
2023/06/28 03:03:09;;;;;;;2.55;2.08;;;19.50;99.90;;;;;;4988639;28;20390;-77
2023/06/28 03:05:36;;;;;;;2.25;1.65;;;19.40;99.90;;;;;;5005606;28;20425;-78
2023/06/28 03:08:03;;;;;;;3.00;2.42;;;19.40;99.90;;;;;;4988142;28;20115;-80
2023/06/28 03:10:30;;;;;;;2.78;2.00;;;19.40;99.90;;;;;;5005653;28;20138;-77
2023/06/28 03:12:57;;;;;;;2.60;1.83;;;19.40;99.90;;;;;;4956026;28;20077;-77
2023/06/28 03:15:24;;;;;;;2.10;1.90;;;19.40;99.90;;;;;;4972793;28;20077;-78
2023/06/28 03:17:51;;;;;;;3.40;2.15;;;19.50;99.90;;;;;;4974121;28;20069;-78
2023/06/28 03:20:20;;;;;;;3.45;1.95;;;19.40;99.90;;;;;;4991842;28;20046;-78
2023/06/28 03:22:47;;;;;;;2.33;2.08;;;19.30;99.90;;;;;;4976719;28;20120;-78
2023/06/28 03:25:15;;;;;;;3.80;2.35;;;19.30;99.90;;;;;;4975928;28;20133;-78
2023/06/28 03:27:42;;;;;;;3.13;2.13;;;19.30;99.90;;;;;;4976368;28;20056;-78
2023/06/28 03:30:09;;;;;;;2.58;1.88;;;19.30;99.90;;;;;;4976282;28;20050;-77
2023/06/28 03:32:36;;;;;;;2.67;2.05;;;19.30;99.90;;;;;;4992374;28;20617;-76
2023/06/28 03:35:03;;;;;;;3.28;2.33;;;19.30;99.90;;;;;;4960557;28;20049;-77
2023/06/28 03:37:29;;;;;;;3.40;2.28;;;19.40;99.90;;;;;;5010291;28;20053;-77
2023/06/28 03:39:56;;;;;;;4.32;2.42;;;19.30;99.90;;;;;;4989699;28;20037;-78
2023/06/28 03:42:23;;;;;;;3.60;2.88;;;19.30;99.90;;;;;;5005346;28;20061;-78
2023/06/28 03:44:50;;;;;;;3.17;2.47;;;19.30;99.90;;;;;;4982044;28;20574;-77
2023/06/28 03:47:17;;;;;;;3.90;2.90;;;19.30;99.90;;;;;;4966570;28;20409;-78
2023/06/28 03:49:45;;;;;;;4.10;2.95;;;19.30;99.90;;;;;;4975169;28;20061;-78
2023/06/28 03:52:12;;;;;;;3.83;3.28;;;19.30;99.90;;;;;;4961931;28;20045;-78
2023/06/28 03:54:39;;;;;;;4.45;3.35;;;19.30;99.90;;;;;;4975951;28;20096;-78
2023/06/28 03:57:06;;;;;;;4.65;3.05;;;19.30;99.90;;;;;;4982248;28;20383;-78
2023/06/28 03:59:32;;;;;;;4.15;3.65;;;19.30;99.90;;;;;;5007083;28;20099;-78
2023/06/28 04:01:59;;;;;;;4.65;3.72;;;19.40;99.90;;;;;;4992672;28;20460;-78
2023/06/28 04:04:26;;;;;;;4.47;3.78;;;19.30;99.90;;;;;;4994448;28;20053;-78
2023/06/28 04:06:53;;;;;;;5.15;3.45;;;19.30;99.90;;;;;;5000474;28;20049;-78
2023/06/28 04:09:20;;;;;;;5.30;3.83;;;19.30;99.90;;;;;;5009364;28;20084;-78
2023/06/28 04:11:47;;;;;;;4.30;3.60;;;19.30;99.90;;;;;;5010470;28;20129;-78
2023/06/28 04:14:14;;;;;;;4.72;3.38;;;19.40;99.90;;;;;;5001004;28;20053;-78
2023/06/28 04:16:40;;;;;;;4.90;3.40;;;19.40;99.90;;;;;;4964629;28;20051;-79
2023/06/28 04:19:07;;;;;;;4.50;3.70;;;19.40;99.90;;;;;;5013267;28;20041;-79
2023/06/28 04:21:34;;;;;;;4.30;3.00;;;19.40;99.90;;;;;;5029011;28;20084;-79
2023/06/28 04:24:01;;;;;;;3.92;3.20;;;19.50;99.90;;;;;;4967220;28;20050;-79
2023/06/28 04:26:28;;;;;;;3.42;2.90;;;19.50;99.90;;;;;;5011109;28;20057;-79
2023/06/28 04:28:55;;;;;;;4.10;3.50;;;19.50;99.90;;;;;;5017348;28;20165;-79
2023/06/28 04:31:22;;;;;;;5.13;4.07;;;19.40;99.90;;;;;;4991263;28;20670;-77
2023/06/28 04:33:49;;;;;;;3.65;3.13;;;19.40;99.90;;;;;;5008415;28;20046;-79
2023/06/28 04:36:21;;;;;;;4.03;3.63;;;19.40;99.90;;;;;;5008099;28;20136;-78
2023/06/28 04:38:52;;;;;;;4.18;3.30;;;19.40;99.90;;;;;;5009245;28;20038;-77
2023/06/28 04:41:21;;;;;;;3.88;3.28;;;19.40;99.90;;;;;;4991440;28;20446;-77
2023/06/28 04:43:47;;;;;;;4.75;3.58;;;19.40;99.90;;;;;;4980221;28;20097;-78
2023/06/28 04:46:14;;;;;;;4.35;2.97;;;19.40;99.90;;;;;;5008534;28;20074;-77
2023/06/28 04:48:42;;;;;;;3.85;3.20;;;19.40;99.90;;;;;;4996731;28;20050;-78
2023/06/28 04:51:09;;;;;;;4.22;3.13;;;19.40;99.90;;;;;;4970091;28;20046;-77
2023/06/28 04:53:35;;;;;;;3.60;2.92;;;19.40;99.90;;;;;;4977820;28;20096;-77
2023/06/28 04:56:03;;;;;;;3.75;3.00;;;19.40;99.90;;;;;;4989522;28;20053;-77
2023/06/28 04:58:30;;;;;;;3.80;2.60;;;19.40;99.90;;;;;;4988308;28;20645;-78
2023/06/28 05:00:56;;;;;;;4.05;3.17;;;19.50;99.90;;;;;;4965839;28;20100;-78
2023/06/28 05:03:27;;;;;;;3.75;2.88;;;19.40;99.90;;;;;;4993675;28;20061;-78
2023/06/28 05:05:54;;;;;;;3.95;3.30;;;19.50;99.90;;;;;;4969002;28;20061;-78
2023/06/28 05:08:21;;;;;;;4.20;3.33;;;19.50;99.90;;;;;;4969392;28;20693;-79
2023/06/28 05:10:48;;;;;;;4.40;3.40;;;19.50;99.90;;;;;;4968969;28;20046;-78
2023/06/28 05:13:15;;;;;;;4.50;3.17;;;19.50;99.90;;;;;;4983756;28;20335;-78
2023/06/28 05:15:42;;;;;;;4.28;3.10;;;19.50;99.90;;;;;;4969258;28;20077;-78
2023/06/28 05:18:09;;;;;;;3.53;2.75;;;19.60;99.90;;;;;;4972542;28;20448;-78
2023/06/28 05:20:35;;;;;;;3.83;3.40;;;19.60;99.90;;;;;;4992247;28;20049;-78
2023/06/28 05:23:10;;;;;;;3.55;2.90;;;19.60;99.90;;;;;;4997451;28;20061;-78
2023/06/28 05:25:40;;;;;;;3.55;2.83;;;19.70;99.90;;;;;;4980719;28;20129;-78
2023/06/28 05:28:10;;;;;;;3.20;2.85;;;19.70;99.90;;;;;;4977115;28;20505;-78
2023/06/28 05:30:37;;;;;;;4.95;3.60;;;19.70;99.90;;;;;;4969032;28;20057;-77
2023/06/28 05:33:04;;;;;;;4.40;3.17;;;19.70;99.90;;;;;;4978942;28;20046;-78
2023/06/28 05:35:31;;;;;;;5.10;3.10;;;19.70;99.90;;;;;;4988413;28;20058;-78
2023/06/28 05:37:59;;;;;;;4.13;3.10;;;19.70;99.90;;;;;;4988590;28;20081;-78
2023/06/28 05:40:26;;;;;;;5.05;3.42;;;19.70;99.90;;;;;;4965766;28;20054;-78
2023/06/28 05:42:54;;;;;;;4.05;3.15;;;19.70;99.90;;;;;;4973364;28;20092;-77
2023/06/28 05:45:26;;;;;;;5.68;3.90;;;19.80;99.90;;;;;;4968414;28;20095;-78
2023/06/28 05:47:53;;;;;;;4.30;3.65;;;19.70;99.90;;;;;;4985516;28;20049;-76
2023/06/28 05:50:21;;;;;;;3.97;3.17;;;19.80;99.90;;;;;;4987677;28;20108;-78
2023/06/28 05:52:49;;;;;;;4.65;3.67;;;19.70;99.90;;;;;;4987049;28;20560;-78
2023/06/28 05:55:16;;;;;;;4.55;3.53;;;19.80;99.90;;;;;;4994222;28;20053;-78
2023/06/28 05:57:44;;;;;;;4.30;3.50;;;19.80;99.90;;;;;;4988025;28;20108;-77
2023/06/28 06:00:12;;;;;;;4.35;3.40;;;19.90;99.90;;;;;;4988768;28;20081;-77
2023/06/28 06:02:39;;;;;;;5.07;3.83;;;19.90;99.90;;;;;;4967909;28;20144;-78
2023/06/28 06:05:07;;;;;;;6.30;4.50;;;19.90;99.90;;;;;;4972147;28;20049;-78
2023/06/28 06:07:39;;;;;;;5.00;3.70;;;19.90;99.90;;;;;;4977503;28;20057;-79
2023/06/28 06:10:07;;;;;;;4.47;4.07;;;19.90;99.90;;;;;;4983607;28;20536;-79
2023/06/28 06:12:35;;;;;;;4.97;4.47;;;19.90;99.90;;;;;;4973092;28;20046;-79
2023/06/28 06:15:03;;;;;;;4.30;3.85;;;20.00;99.90;;;;;;4976621;28;20092;-78
2023/06/28 06:17:30;;;;;;;3.95;3.30;;;20.00;99.90;;;;;;5000489;28;20113;-77
2023/06/28 06:19:57;;;;;;;6.13;4.13;;;20.10;99.90;;;;;;4996262;28;20058;-78
2023/06/28 06:22:24;;;;;;;5.25;4.15;;;20.00;99.90;;;;;;4982595;28;20425;-78
2023/06/28 06:24:50;;;;;;;5.65;4.40;;;20.00;99.90;;;;;;4978461;28;20105;-78
2023/06/28 06:27:17;;;;;;;4.32;3.53;;;20.00;99.90;;;;;;4976786;28;20311;-78
2023/06/28 06:29:44;;;;;;;4.35;3.78;;;20.10;99.90;;;;;;4991584;28;20584;-78
2023/06/28 06:32:11;;;;;;;4.65;3.63;;;20.00;99.90;;;;;;4986523;28;20437;-78
2023/06/28 06:34:39;;;;;;;4.88;3.65;;;20.00;99.90;;;;;;4981972;28;20049;-78
2023/06/28 06:37:11;;;;;;;5.50;4.38;;;20.00;99.90;;;;;;4997918;28;20666;-78
2023/06/28 06:39:39;;;;;;;4.90;3.60;;;20.00;99.90;;;;;;4971294;28;20133;-77
2023/06/28 06:42:07;;;;;;;5.38;3.72;;;20.00;99.90;;;;;;4970501;28;20096;-78
2023/06/28 06:44:34;;;;;;;4.45;4.00;;;20.10;99.90;;;;;;4970883;28;20053;-78
2023/06/28 06:47:01;;;;;;;4.28;3.58;;;20.20;99.90;;;;;;4967136;28;20459;-78
2023/06/28 06:49:28;;;;;;;4.88;3.92;;;20.30;99.90;;;;;;4986763;28;20129;-78
2023/06/28 06:51:55;;;;;;;5.03;3.97;;;20.40;99.90;;;;;;5003550;28;20429;-80
2023/06/28 06:54:22;;;;;;;4.65;3.78;;;20.50;99.90;;;;;;4985911;28;20142;-78
2023/06/28 06:56:49;;;;;;;3.95;3.55;;;20.60;99.90;;;;;;4973124;28;20193;-78
2023/06/28 06:59:19;;;;;;;4.40;3.67;;;20.70;99.90;;;;;;4985834;28;20085;-78
2023/06/28 07:01:46;;;;;;;3.80;3.40;;;20.80;99.90;;;;;;4998407;28;20042;-77
2023/06/28 07:04:13;;;;;;;4.68;4.18;;;20.80;99.90;;;;;;5000171;28;20126;-78
2023/06/28 07:06:40;;;;;;;5.07;3.33;;;20.90;99.90;;;;;;4979123;28;20042;-78
2023/06/28 07:09:07;;;;;;;4.30;3.67;;;21.00;99.90;;;;;;4986060;28;20087;-78
2023/06/28 07:11:34;;;;;;;4.55;4.10;;;21.10;99.90;;;;;;4994487;28;20053;-78
2023/06/28 07:14:00;;;;;;;5.60;4.20;;;21.30;99.90;;;;;;4998912;28;20054;-79
2023/06/28 07:16:27;;;;;;;5.80;4.28;;;21.40;99.90;;;;;;4984140;28;20460;-77
2023/06/28 07:18:54;;;;;;;4.93;3.88;;;21.50;99.90;;;;;;5003672;28;20053;-78
2023/06/28 07:21:21;;;;;;;4.55;3.58;;;21.60;99.90;;;;;;4989017;28;20050;-78
2023/06/28 07:23:48;;;;;;;4.55;4.03;;;21.60;99.90;;;;;;4973871;28;20607;-78
2023/06/28 07:26:15;;;;;;;5.35;3.88;;;21.60;99.90;;;;;;4985871;28;20100;-78
2023/06/28 07:28:42;;;;;;;5.10;4.20;;;21.50;99.90;;;;;;4969539;28;20362;-78
2023/06/28 07:31:08;;;;;;;4.28;3.42;;;21.50;99.90;;;;;;4986943;28;20049;-77
2023/06/28 07:33:35;;;;;;;4.25;3.65;;;21.60;99.90;;;;;;4984976;28;20608;-77
2023/06/28 07:36:02;;;;;;;4.95;3.65;;;21.60;99.90;;;;;;4985780;28;20140;-78
2023/06/28 07:38:29;;;;;;;4.03;3.58;;;21.60;99.90;;;;;;4985057;28;20057;-78
2023/06/28 07:40:56;;;;;;;4.07;3.30;;;21.70;99.90;;;;;;5001938;28;20053;-77
2023/06/28 07:43:23;;;;;;;3.97;3.58;;;21.80;99.90;;;;;;4984605;28;20050;-77
2023/06/28 07:45:50;;;;;;;4.15;3.58;;;21.80;99.90;;;;;;5002593;28;20049;-77
2023/06/28 07:48:17;;;;;;;4.03;3.22;;;21.80;99.90;;;;;;4967513;28;20049;-77
2023/06/28 07:50:44;;;;;;;4.78;3.78;;;21.90;99.90;;;;;;4984097;28;20049;-77
2023/06/28 07:53:11;;;;;;;4.47;3.53;;;22.00;99.90;;;;;;5001778;28;20137;-77
2023/06/28 07:55:38;;;;;;;5.32;4.65;;;21.90;99.90;;;;;;4984207;28;20073;-78
2023/06/28 07:58:05;;;;;;;5.20;4.38;;;21.90;99.90;;;;;;4983421;28;20122;-77
2023/06/28 08:00:32;;;;;;;4.15;3.58;;;21.90;99.90;;;;;;5002105;28;20134;-77
2023/06/28 08:02:59;;;;;;;4.22;3.80;;;21.90;99.90;;;;;;4967182;28;20085;-78
2023/06/28 08:05:26;;;;;;;4.40;4.00;;;22.00;99.90;;;;;;4983517;28;20045;-78
2023/06/28 08:07:55;;;;;;;4.95;4.45;;;22.00;99.90;;;;;;4990631;28;20095;-78
2023/06/28 08:10:23;;;;;;;5.45;4.20;;;21.90;99.90;;;;;;4971065;28;20136;-78
2023/06/28 08:12:53;;;;;;;4.65;4.00;;;21.90;99.90;;;;;;4957582;28;20073;-78
2023/06/28 08:15:20;;;;;;;4.00;3.47;;;21.80;99.90;;;;;;5003181;28;20229;-78
2023/06/28 08:17:47;;;;;;;5.38;4.63;;;22.00;99.90;;;;;;4988122;28;20042;-78
2023/06/28 08:20:14;;;;;;;4.55;3.92;;;21.90;99.90;;;;;;4985830;28;20068;-77
2023/06/28 08:22:41;;;;;;;4.20;3.67;;;21.90;99.90;;;;;;4969395;28;20046;-77
2023/06/28 08:25:08;;;;;;;4.88;4.03;;;22.00;99.90;;;;;;4966351;28;20476;-78
2023/06/28 08:27:35;;;;;;;4.22;3.80;;;22.00;99.90;;;;;;4982449;28;20046;-77
2023/06/28 08:30:03;;;;;;;5.07;3.95;;;21.90;99.90;;;;;;4987874;28;20137;-77
2023/06/28 08:32:31;;;;;;;4.97;4.00;;;21.90;99.90;;;;;;4970397;28;20046;-77
2023/06/28 08:34:58;;;;;;;4.63;3.97;;;21.90;99.90;;;;;;4951934;28;20128;-78
2023/06/28 08:37:24;;;;;;;4.45;4.05;;;21.90;99.90;;;;;;4969309;28;20096;-77
2023/06/28 08:39:51;;;;;;;4.70;3.97;;;21.90;99.90;;;;;;5001151;28;20053;-77
2023/06/28 08:42:18;;;;;;;4.43;3.75;;;22.00;99.90;;;;;;4984382;28;20438;-78
2023/06/28 08:44:45;;;;;;;5.13;4.25;;;22.00;99.90;;;;;;4987340;28;20131;-78
2023/06/28 08:47:13;;;;;;;3.90;3.38;;;22.10;99.90;;;;;;5012387;28;20077;-78
2023/06/28 08:49:39;;;;;;;5.07;3.92;;;22.20;99.90;;;;;;4971128;28;20050;-77
2023/06/28 08:52:06;;;;;;;4.60;3.67;;;22.20;99.90;;;;;;4986389;28;21098;-78
2023/06/28 08:54:33;;;;;;;4.20;3.67;;;22.30;99.90;;;;;;4988928;28;20563;-77
2023/06/28 08:57:00;;;;;;;4.30;3.90;;;22.40;99.90;;;;;;4959340;28;20038;-77
2023/06/28 08:59:29;;;;;;;5.97;4.50;;;22.40;99.90;;;;;;4971466;28;20057;-77
2023/06/28 09:01:58;;;;;;;3.88;3.47;;;22.40;99.90;;;;;;4991820;28;20070;-77
2023/06/28 09:04:26;;;;;;;4.22;3.50;;;22.50;99.90;;;;;;4993312;28;20149;-76
2023/06/28 09:06:54;;;;;;;4.72;3.78;;;22.40;99.90;;;;;;4953204;28;20548;-76
2023/06/28 09:09:20;;;;;;;4.13;3.60;;;22.30;99.90;;;;;;4959332;28;20136;-77
2023/06/28 09:11:47;;;;;;;4.43;3.72;;;22.30;99.90;;;;;;4977111;28;20058;-77
2023/06/28 09:14:14;;;;;;;4.43;3.70;;;22.30;99.90;;;;;;4972059;28;20049;-77
2023/06/28 09:16:41;;;;;;;4.25;3.35;;;22.40;99.90;;;;;;4971450;28;20046;-79
2023/06/28 09:19:07;;;;;;;4.20;3.75;;;22.50;99.90;;;;;;4990800;28;20070;-78
2023/06/28 09:21:34;;;;;;;4.60;3.50;;;22.50;99.90;;;;;;5010372;28;20465;-78
2023/06/28 09:24:01;;;;;;;4.10;3.47;;;22.70;99.90;;;;;;4970267;28;20046;-78
2023/06/28 09:26:31;;;;;;;4.40;3.28;;;22.80;99.90;;;;;;4988934;28;20046;-78
2023/06/28 09:29:10;;;;;;;4.55;3.60;;;22.90;99.90;;;;;;4970013;28;20136;-78
2023/06/28 09:31:41;;;;;;;4.18;3.63;;;22.90;99.90;;;;;;4987421;28;20436;-78
2023/06/28 09:34:08;;;;;;;4.50;3.97;;;22.90;99.90;;;;;;4986804;28;20050;-78
2023/06/28 09:36:38;;;;;;;4.70;3.92;;;22.70;99.90;;;;;;4969127;28;20119;-78
2023/06/28 09:39:05;;;;;;;4.35;3.88;;;22.90;99.90;;;;;;4970104;28;20054;-78
2023/06/28 09:41:41;;;;;;;3.72;3.20;;;23.00;99.90;;;;;;4951777;28;20124;-77
2023/06/28 09:44:11;;;;;;;3.72;2.95;;;23.30;99.90;;;;;;4970047;28;20046;-78
2023/06/28 09:46:47;;;;;;;3.72;3.20;;;23.40;99.90;;;;;;4975162;28;20104;-78
2023/06/28 09:49:21;;;;;;;4.65;3.38;;;23.50;99.90;;;;;;4995363;28;20115;-78
2023/06/28 09:51:57;;;;;;;4.05;3.10;;;23.40;99.90;;;;;;4965317;28;20062;-78
2023/06/28 09:54:30;;;;;;;3.13;2.83;;;23.30;99.90;;;;;;4989706;28;20056;-77
2023/06/28 09:56:58;;;;;;;3.83;3.42;;;23.30;99.90;;;;;;4987826;28;20060;-78
2023/06/28 09:59:27;;;;;;;4.47;3.80;;;23.40;99.90;;;;;;4984720;28;20046;-78
2023/06/28 10:02:04;;;;;;;4.82;4.20;;;23.40;99.90;;;;;;4994817;28;20049;-78
2023/06/28 10:04:31;;;;;;;3.22;2.92;;;23.30;99.90;;;;;;4978647;28;20042;-78
2023/06/28 10:07:00;;;;;;;3.83;3.42;;;23.30;99.90;;;;;;4999165;28;20874;-78
2023/06/28 10:09:35;;;;;;;4.07;3.65;;;23.20;99.90;;;;;;4974809;28;20076;-78
2023/06/28 10:12:15;;;;;;;3.67;3.38;;;23.20;99.90;;;;;;4964832;28;20053;-78
2023/06/28 10:14:48;;;;;;;3.85;3.20;;;23.30;99.90;;;;;;4988551;28;20516;-78
2023/06/28 10:17:15;;;;;;;3.83;3.22;;;23.30;99.90;;;;;;4987864;28;20096;-77
2023/06/28 10:19:41;;;;;;;4.00;3.50;;;23.50;99.90;;;;;;4965908;28;20076;-77
2023/06/28 10:22:08;;;;;;;4.28;3.40;;;23.70;99.90;;;;;;4965840;28;20065;-77
2023/06/28 10:24:35;;;;;;;3.92;3.25;;;23.90;99.90;;;;;;4960427;28;20143;-76
2023/06/28 10:27:02;;;;;;;3.33;3.00;;;24.00;99.90;;;;;;4978108;28;20107;-78
2023/06/28 10:29:30;;;;;;;4.30;2.97;;;24.00;99.90;;;;;;4998557;28;20050;-78
2023/06/28 10:31:57;;;;;;;3.85;3.42;;;24.00;99.90;;;;;;4974386;28;20053;-76
2023/06/28 10:34:24;;;;;;;3.95;3.55;;;24.20;99.90;;;;;;4994428;28;20048;-77
2023/06/28 10:36:51;;;;;;;3.88;3.45;;;24.10;99.90;;;;;;4979847;28;20076;-77
2023/06/28 10:39:18;;;;;;;3.33;3.03;;;24.10;99.90;;;;;;4972450;28;20046;-78
2023/06/28 10:41:44;;;;;;;3.17;2.83;;;24.10;99.90;;;;;;4981820;28;20050;-77
2023/06/28 10:44:11;;;;;;;3.35;2.83;;;24.00;99.90;;;;;;4986969;28;20203;-77
2023/06/28 10:46:38;;;;;;;3.55;2.92;;;24.00;99.90;;;;;;4970857;28;20509;-78
2023/06/28 10:49:05;;;;;;;3.53;2.63;;;23.90;99.90;;;;;;5004117;28;20077;-77
2023/06/28 10:51:33;;;;;;;3.60;3.10;;;23.90;99.90;;;;;;4990264;28;20054;-77
2023/06/28 10:54:12;;;;;;;3.88;3.35;;;23.80;99.90;;;;;;4983297;28;20536;-78
2023/06/28 10:56:49;;;;;;;3.38;2.95;;;23.60;99.90;;;;;;4952257;28;20065;-78
2023/06/28 10:59:16;;;;;;;3.58;2.85;;;23.50;99.90;;;;;;4982891;28;20100;-78
2023/06/28 11:01:49;;;;;;;4.63;3.58;;;23.40;99.90;;;;;;4994086;28;20116;-78
2023/06/28 11:04:17;;;;;;;;;;;22.00;99.90;;;;;;4974364;28;20082;-80
2023/06/28 11:06:44;;;;;;;4.93;3.88;;;20.60;99.90;;;;;;4956712;28;20516;-77
2023/06/28 11:09:19;;;;;;;4.07;3.45;;;19.90;99.90;;;;;;4946450;28;20061;-77
2023/06/28 11:11:54;;;;;;;4.78;3.78;;;19.70;99.90;;;;;;4966266;28;20047;-77
2023/06/28 11:14:30;;;;;;;3.88;3.25;;;19.70;99.90;;;;;;4949062;28;20118;-78
2023/06/28 11:17:12;;;;;;;4.70;3.70;;;19.60;99.90;;;;;;4967430;28;20109;-77
2023/06/28 11:19:39;;;;;;;4.18;3.42;;;19.60;99.90;;;;;;4961946;28;20124;-77
2023/06/28 11:22:06;;;;;;;2.90;2.60;;;19.50;99.90;;;;;;4967462;28;20042;-77
2023/06/28 11:24:33;;;;;;;3.17;2.85;;;19.60;99.90;;;;;;4948218;28;20669;-78
2023/06/28 11:27:12;;;;;;;3.47;3.17;;;19.70;99.90;;;;;;4981586;28;20139;-77
2023/06/28 11:29:52;;;;;;;3.60;2.80;;;19.70;99.90;;;;;;4964947;28;20061;-78
2023/06/28 11:32:25;;;;;;;4.28;3.53;;;19.70;99.90;;;;;;4981129;28;20046;-78
2023/06/28 11:34:54;;;;;;;3.80;3.35;;;19.80;99.90;;;;;;4965465;28;20128;-79
2023/06/28 11:37:22;;;;;;;3.42;2.97;;;20.00;99.90;;;;;;4961844;28;20061;-78
2023/06/28 11:39:49;;;;;;;3.05;2.75;;;20.30;99.90;;;;;;4965057;28;20168;-78
2023/06/28 11:42:18;;;;;;;4.05;3.65;;;20.60;99.90;;;;;;4969087;28;20137;-78
2023/06/28 11:44:51;;;;;;;4.10;3.15;;;20.90;99.90;;;;;;4968095;28;20080;-78
2023/06/28 11:47:20;;;;;;;3.65;3.30;;;21.30;99.90;;;;;;4960073;28;20564;-77
2023/06/28 11:49:51;;;;;;;;;;;21.70;99.90;;;;;;4968531;28;20489;-77
2023/06/28 11:52:18;;;;;;;3.10;2.47;;;22.00;99.90;;;;;;4969993;28;20008;-77
2023/06/28 11:54:45;;;;;;;2.67;2.42;;;22.40;99.90;;;;;;4936169;28;20058;-79
2023/06/28 11:57:12;;;;;;;3.33;2.80;;;22.70;99.90;;;;;;4951593;28;20046;-78
2023/06/28 11:59:44;;;;;;;2.90;2.60;;;23.00;99.90;;;;;;4933199;28;20464;-78
2023/06/28 12:02:11;;;;;;;4.10;3.70;;;23.30;99.90;;;;;;4957756;28;20401;-79
2023/06/28 12:04:38;;;;;;;5.93;4.05;;;23.40;99.90;;;;;;4999960;28;20071;-78
2023/06/28 12:07:05;;;;;;;3.60;3.30;;;23.70;99.90;;;;;;4974764;28;20156;-78
2023/06/28 12:09:34;;;;;;;4.03;3.58;;;24.20;99.90;;;;;;4983419;28;20111;-78
2023/06/28 12:12:03;;;;;;;4.00;3.13;;;24.80;99.90;;;;;;5004724;28;20053;-77
2023/06/28 12:14:36;;;;;;;3.83;3.38;;;25.20;99.90;;;;;;4965545;28;20052;-78
2023/06/28 12:17:03;;;;;;;3.40;3.10;;;25.30;99.90;;;;;;4956564;28;20116;-78
2023/06/28 12:19:35;;;;;;;4.53;3.90;;;25.20;99.90;;;;;;4958645;28;20112;-76
2023/06/28 12:22:07;;;;;;;4.18;3.78;;;24.90;99.90;;;;;;4963675;28;20060;-79
2023/06/28 12:24:35;;;;;;;;;;;24.80;99.90;;;;;;4979455;28;20141;-78
2023/06/28 12:27:05;;;;;;;3.83;3.20;;;24.70;99.90;;;;;;4969716;28;19929;-78
2023/06/28 12:29:35;;;;;;;5.25;3.42;;;24.60;99.90;;;;;;4961524;28;20053;-78
2023/06/28 12:32:07;;;;;;;3.30;3.00;;;24.60;99.90;;;;;;4974534;28;20053;-78
2023/06/28 12:34:36;;;;;;;4.07;3.60;;;24.60;99.90;;;;;;4969516;28;20136;-77
2023/06/28 12:37:07;;;;;;;4.05;3.40;;;24.70;99.90;;;;;;4965683;28;20060;-78
2023/06/28 12:39:36;;;;;;;3.33;2.95;;;24.60;99.90;;;;;;4983609;28;20148;-78
2023/06/28 12:42:08;;;;;;;3.72;3.22;;;24.70;99.90;;;;;;5006706;28;20711;-78
2023/06/28 12:44:54;;;;;;;2.92;2.55;;;24.70;99.90;;;;;;4984773;28;20045;-78
2023/06/28 12:47:22;;;;;;;4.30;3.40;;;24.70;99.90;;;;;;4968947;28;20448;-79
2023/06/28 12:49:51;;;;;;;4.20;3.80;;;24.60;99.90;;;;;;4945906;28;20213;-78
2023/06/28 12:52:21;;;;;;;3.40;3.10;;;24.60;99.90;;;;;;4952574;28;20413;-78